Time;durP1;ratioP1;P1;durP2;ratioP2;P2;SDS_P1;SDS_P2;PMS_P1;PMS_P2;Temp;Humidity;BMP_temperature;BMP_pressure;BME280_temperature;BME280_humidity;BME280_pressure;Samples;Min_cycle;Max_cycle;Signal;HPM_P1;HPM_P2
2023/04/19 00:00:18;;;;;;;2.17;1.42;;;10.70;72.00;;;;;;5113449;28;20035;-69
2023/04/19 00:02:44;;;;;;;1.48;1.00;;;10.70;72.00;;;;;;5113021;28;20168;-69
2023/04/19 00:05:12;;;;;;;1.77;1.40;;;10.60;72.00;;;;;;5112994;28;20497;-70
2023/04/19 00:07:38;;;;;;;2.42;1.42;;;10.70;72.10;;;;;;5113287;28;20114;-70
2023/04/19 00:10:04;;;;;;;2.08;1.23;;;10.70;72.20;;;;;;5113129;28;20196;-70
2023/04/19 00:12:29;;;;;;;1.30;1.10;;;10.70;72.30;;;;;;5109238;28;20497;-70
2023/04/19 00:14:55;;;;;;;2.25;1.17;;;10.70;72.30;;;;;;5094598;28;20120;-70
2023/04/19 00:17:21;;;;;;;1.85;1.33;;;10.60;72.30;;;;;;5093551;28;20046;-71
2023/04/19 00:19:47;;;;;;;1.65;1.02;;;10.70;72.40;;;;;;5112962;28;20378;-70
2023/04/19 00:22:13;;;;;;;1.17;1.00;;;10.70;72.40;;;;;;5094736;28;20123;-70
2023/04/19 00:24:38;;;;;;;2.08;1.20;;;10.70;72.50;;;;;;5093727;28;20398;-70
2023/04/19 00:27:04;;;;;;;1.25;1.05;;;10.70;72.60;;;;;;5093072;28;20389;-70
2023/04/19 00:29:29;;;;;;;1.10;0.90;;;10.70;72.70;;;;;;5113128;28;20392;-69
2023/04/19 00:31:55;;;;;;;1.20;0.90;;;10.70;72.70;;;;;;5094493;28;20046;-69
2023/04/19 00:34:21;;;;;;;1.55;1.00;;;10.70;72.80;;;;;;5112706;28;20104;-69
2023/04/19 00:36:46;;;;;;;1.60;1.10;;;10.60;72.80;;;;;;5111566;28;20044;-69
2023/04/19 00:39:12;;;;;;;1.77;1.13;;;10.70;72.90;;;;;;5112966;28;20047;-69
2023/04/19 00:41:38;;;;;;;1.52;1.15;;;10.60;73.00;;;;;;5092825;28;20486;-69
2023/04/19 00:44:03;;;;;;;1.90;1.27;;;10.60;73.00;;;;;;5112566;28;20051;-69
2023/04/19 00:46:29;;;;;;;1.77;1.25;;;10.60;73.20;;;;;;5112960;28;20035;-69
2023/04/19 00:48:55;;;;;;;1.10;1.00;;;10.50;73.20;;;;;;5113025;28;20058;-69
2023/04/19 00:51:20;;;;;;;1.02;0.90;;;10.50;73.30;;;;;;5112371;28;20107;-69
2023/04/19 00:53:48;;;;;;;1.35;1.10;;;10.50;73.40;;;;;;5112409;28;20561;-69
2023/04/19 00:56:14;;;;;;;2.10;1.30;;;10.40;73.50;;;;;;5112256;28;20050;-69
2023/04/19 00:58:40;;;;;;;1.73;1.30;;;10.40;73.60;;;;;;5094420;28;20035;-69
2023/04/19 01:01:06;;;;;;;1.77;1.20;;;10.40;73.60;;;;;;5112348;28;20046;-69
2023/04/19 01:03:33;;;;;;;1.98;1.27;;;10.30;73.70;;;;;;5112290;28;20044;-70
2023/04/19 01:05:59;;;;;;;2.17;1.42;;;10.40;73.80;;;;;;5112306;28;20040;-69
2023/04/19 01:08:25;;;;;;;1.63;1.30;;;10.40;73.90;;;;;;5112702;28;20042;-70
2023/04/19 01:10:50;;;;;;;2.10;1.40;;;10.30;73.90;;;;;;5112189;28;20040;-70
2023/04/19 01:13:16;;;;;;;1.98;1.35;;;10.40;73.90;;;;;;5112281;28;20118;-70
2023/04/19 01:15:42;;;;;;;1.73;1.17;;;10.30;73.90;;;;;;5112179;28;20043;-70
2023/04/19 01:18:08;;;;;;;1.77;1.10;;;10.30;74.00;;;;;;5093398;28;20143;-70
2023/04/19 01:20:33;;;;;;;1.58;1.27;;;10.20;74.10;;;;;;5076938;28;20075;-70
2023/04/19 01:22:59;;;;;;;2.63;1.30;;;10.20;74.10;;;;;;5112407;28;20481;-70
2023/04/19 01:25:25;;;;;;;1.73;1.20;;;10.20;74.20;;;;;;5112181;28;20036;-70
2023/04/19 01:27:51;;;;;;;2.22;1.17;;;10.20;74.90;;;;;;5060371;28;20384;-70
2023/04/19 01:30:16;;;;;;;1.38;1.17;;;10.20;74.40;;;;;;5112080;28;20039;-70
2023/04/19 01:32:43;;;;;;;1.17;0.80;;;10.20;74.50;;;;;;5112015;28;20047;-70
2023/04/19 01:35:10;;;;;;;1.92;1.20;;;10.10;74.50;;;;;;5093109;28;20048;-70
2023/04/19 01:37:36;;;;;;;2.13;1.20;;;10.10;74.60;;;;;;5075664;28;20047;-70
2023/04/19 01:40:04;;;;;;;1.52;1.10;;;10.10;74.60;;;;;;5111927;28;20515;-70
2023/04/19 01:42:30;;;;;;;2.10;1.42;;;10.10;74.70;;;;;;5111743;28;20443;-70
2023/04/19 01:44:55;;;;;;;2.22;1.20;;;10.00;74.70;;;;;;5112018;28;20036;-70
2023/04/19 01:47:23;;;;;;;1.58;1.02;;;10.10;74.80;;;;;;5111696;28;20044;-70
2023/04/19 01:49:49;;;;;;;1.92;1.10;;;10.00;74.90;;;;;;5114995;28;20085;-70
2023/04/19 01:52:15;;;;;;;2.40;1.40;;;10.00;75.00;;;;;;5096233;28;20043;-70
2023/04/19 01:54:40;;;;;;;2.83;1.50;;;10.00;75.10;;;;;;5115283;28;20503;-70
2023/04/19 01:57:06;;;;;;;2.92;1.40;;;10.00;75.10;;;;;;5115092;28;20036;-70
2023/04/19 01:59:31;;;;;;;1.33;1.00;;;9.90;75.10;;;;;;5115098;28;20047;-70
2023/04/19 02:01:57;;;;;;;3.65;1.20;;;9.80;75.10;;;;;;5095556;28;20154;-70
2023/04/19 02:04:23;;;;;;;1.75;1.20;;;9.90;75.20;;;;;;5115247;28;20050;-70
2023/04/19 02:06:48;;;;;;;1.67;1.20;;;9.90;75.20;;;;;;5096500;28;20067;-70
2023/04/19 02:09:14;;;;;;;1.92;1.10;;;9.80;75.20;;;;;;5115461;28;20031;-70
2023/04/19 02:11:40;;;;;;;2.35;1.40;;;9.80;75.20;;;;;;5115455;28;20362;-71
2023/04/19 02:14:06;;;;;;;1.45;1.00;;;9.80;75.20;;;;;;5114857;28;20042;-70
2023/04/19 02:16:31;;;;;;;1.77;1.05;;;9.80;75.30;;;;;;5115135;28;20046;-70
2023/04/19 02:18:57;;;;;;;1.65;1.17;;;9.80;75.30;;;;;;5095247;28;20388;-70
2023/04/19 02:21:23;;;;;;;1.20;1.00;;;9.80;75.40;;;;;;5114670;28;20126;-70
2023/04/19 02:23:48;;;;;;;1.98;1.30;;;9.70;75.40;;;;;;5114571;28;20048;-70
2023/04/19 02:26:14;;;;;;;1.10;1.00;;;9.80;76.20;;;;;;5114672;28;20442;-70
2023/04/19 02:28:40;;;;;;;1.33;1.08;;;9.70;75.50;;;;;;5114608;28;20047;-70
2023/04/19 02:31:05;;;;;;;1.88;1.10;;;9.60;75.50;;;;;;5114564;28;20036;-70
2023/04/19 02:33:31;;;;;;;1.45;1.00;;;9.70;75.70;;;;;;5115031;28;20354;-70
2023/04/19 02:35:57;;;;;;;1.77;1.20;;;9.60;75.70;;;;;;5096031;28;20046;-70
2023/04/19 02:38:22;;;;;;;1.02;0.90;;;9.60;75.80;;;;;;5078475;28;20506;-70
2023/04/19 02:40:48;;;;;;;1.70;1.20;;;9.70;75.90;;;;;;5114397;28;20078;-69
2023/04/19 02:43:13;;;;;;;1.58;1.20;;;9.60;75.90;;;;;;5114369;28;20066;-69
2023/04/19 02:45:39;;;;;;;1.45;1.20;;;9.60;75.90;;;;;;5114229;28;20047;-69
2023/04/19 02:48:05;;;;;;;2.38;1.33;;;9.70;75.90;;;;;;5114327;28;20055;-69
2023/04/19 02:50:32;;;;;;;1.20;0.90;;;9.60;76.40;;;;;;5114891;28;20043;-69
2023/04/19 02:52:57;;;;;;;1.42;1.10;;;9.70;75.80;;;;;;5114631;28;20043;-69
2023/04/19 02:55:23;;;;;;;2.33;1.30;;;9.70;75.70;;;;;;5114271;28;20047;-70
2023/04/19 02:57:49;;;;;;;1.35;0.95;;;9.80;75.70;;;;;;5114240;28;20046;-69
2023/04/19 03:00:15;;;;;;;1.40;1.00;;;9.80;76.30;;;;;;5113164;28;20043;-69
2023/04/19 03:02:42;;;;;;;1.13;1.00;;;9.70;75.60;;;;;;5114010;28;20092;-69
2023/04/19 03:05:09;;;;;;;1.50;1.10;;;9.80;75.70;;;;;;5114515;28;20044;-69
2023/04/19 03:07:35;;;;;;;1.25;1.00;;;9.70;75.60;;;;;;5114168;28;20471;-70
2023/04/19 03:10:01;;;;;;;1.27;0.98;;;9.80;75.60;;;;;;5114051;28;20039;-69
2023/04/19 03:12:26;;;;;;;1.02;0.80;;;9.80;75.60;;;;;;5094369;28;20032;-69
2023/04/19 03:14:52;;;;;;;1.15;0.90;;;9.90;75.60;;;;;;5114231;28;20031;-69
2023/04/19 03:17:18;;;;;;;1.25;1.10;;;9.80;75.60;;;;;;5114324;28;20655;-69
2023/04/19 03:19:43;;;;;;;1.85;1.15;;;9.90;75.60;;;;;;5114483;28;20031;-69
2023/04/19 03:22:09;;;;;;;1.35;1.00;;;9.90;75.60;;;;;;5114372;28;20047;-70
2023/04/19 03:24:35;;;;;;;1.05;0.95;;;9.90;75.50;;;;;;5094962;28;20043;-69
2023/04/19 03:27:02;;;;;;;2.00;1.25;;;9.90;75.50;;;;;;5114448;28;20040;-70
2023/04/19 03:29:27;;;;;;;1.65;0.98;;;9.90;75.50;;;;;;5114105;28;20039;-70
2023/04/19 03:31:53;;;;;;;1.38;0.95;;;9.90;75.50;;;;;;5095277;28;20039;-70
2023/04/19 03:34:19;;;;;;;2.33;1.17;;;10.00;75.50;;;;;;5094927;28;20112;-71
2023/04/19 03:36:45;;;;;;;1.50;1.10;;;10.00;75.50;;;;;;5113665;28;20043;-70
2023/04/19 03:39:10;;;;;;;2.00;1.02;;;10.00;75.50;;;;;;5113470;28;20519;-69
2023/04/19 03:41:36;;;;;;;2.33;1.25;;;10.00;75.50;;;;;;5113565;28;20039;-70
2023/04/19 03:44:02;;;;;;;1.75;1.00;;;10.00;75.50;;;;;;5113877;28;20039;-70
2023/04/19 03:46:30;;;;;;;1.65;1.13;;;10.00;75.50;;;;;;5113491;28;20051;-69
2023/04/19 03:48:56;;;;;;;1.50;1.08;;;10.00;75.50;;;;;;5113275;28;20055;-69
2023/04/19 03:51:22;;;;;;;1.90;1.10;;;10.00;75.40;;;;;;5077394;28;20048;-69
2023/04/19 03:53:47;;;;;;;1.20;0.90;;;10.10;75.50;;;;;;5093247;28;20048;-69
2023/04/19 03:56:13;;;;;;;1.40;0.88;;;10.00;75.40;;;;;;5094519;28;20040;-69
2023/04/19 03:58:39;;;;;;;1.63;1.10;;;10.00;75.40;;;;;;5093991;28;20052;-70
2023/04/19 04:01:05;;;;;;;2.15;1.05;;;10.00;75.40;;;;;;5113745;28;20055;-70
2023/04/19 04:03:31;;;;;;;1.52;1.00;;;10.10;75.40;;;;;;5113178;28;20046;-70
2023/04/19 04:05:57;;;;;;;1.70;1.08;;;10.00;75.40;;;;;;5113579;28;20047;-70
2023/04/19 04:08:23;;;;;;;1.35;1.13;;;10.00;75.40;;;;;;5113733;28;20084;-70
2023/04/19 04:10:48;;;;;;;1.98;1.23;;;10.00;75.50;;;;;;5113186;28;20036;-70
2023/04/19 04:13:14;;;;;;;2.03;1.33;;;10.00;75.50;;;;;;5094319;28;20505;-70
2023/04/19 04:15:40;;;;;;;1.73;1.25;;;10.00;75.60;;;;;;5094297;28;20052;-70
2023/04/19 04:18:05;;;;;;;1.17;0.85;;;9.90;75.60;;;;;;5113527;28;20165;-70
2023/04/19 04:20:31;;;;;;;1.05;0.95;;;9.80;75.70;;;;;;5113534;28;20130;-70
2023/04/19 04:22:57;;;;;;;1.60;1.00;;;9.90;75.80;;;;;;5113126;28;20512;-70
2023/04/19 04:25:23;;;;;;;1.17;0.95;;;9.70;75.80;;;;;;5113738;28;20474;-70
2023/04/19 04:27:51;;;;;;;1.38;1.15;;;9.70;75.90;;;;;;5094945;28;20054;-70
2023/04/19 04:30:16;;;;;;;1.10;0.98;;;9.60;75.90;;;;;;5093901;28;20401;-70
2023/04/19 04:32:43;;;;;;;1.63;1.15;;;9.70;76.00;;;;;;5113211;28;20122;-70
2023/04/19 04:35:10;;;;;;;1.50;1.05;;;9.70;76.00;;;;;;5113059;28;20067;-70
2023/04/19 04:37:36;;;;;;;1.35;0.90;;;9.60;75.90;;;;;;5112913;28;20130;-69
2023/04/19 04:40:04;;;;;;;1.40;1.00;;;9.60;75.90;;;;;;5094847;28;20051;-70
2023/04/19 04:42:31;;;;;;;1.75;0.95;;;9.60;76.00;;;;;;5112857;28;20059;-69
2023/04/19 04:44:57;;;;;;;1.13;1.00;;;9.60;76.00;;;;;;5108943;28;20416;-71
2023/04/19 04:47:23;;;;;;;1.27;1.00;;;9.50;76.00;;;;;;5094187;28;20104;-70
2023/04/19 04:49:52;;;;;;;1.85;1.20;;;9.50;76.20;;;;;;5095257;28;20039;-71
2023/04/19 04:52:18;;;;;;;1.58;1.08;;;9.50;75.90;;;;;;5113286;28;20040;-70
2023/04/19 04:54:43;;;;;;;1.20;1.00;;;9.50;75.90;;;;;;5061106;28;20517;-70
2023/04/19 04:57:09;;;;;;;2.47;1.27;;;9.40;75.90;;;;;;5094716;28;20453;-70
2023/04/19 04:59:35;;;;;;;1.02;0.75;;;9.40;75.80;;;;;;5112664;28;20085;-71
2023/04/19 05:02:01;;;;;;;2.03;0.80;;;9.40;75.80;;;;;;5113002;28;20053;-71
2023/04/19 05:04:26;;;;;;;1.15;0.90;;;9.50;75.90;;;;;;5112490;28;20602;-70
2023/04/19 05:06:52;;;;;;;1.17;0.90;;;9.40;75.70;;;;;;5112639;28;20035;-70
2023/04/19 05:09:17;;;;;;;1.83;1.00;;;9.40;75.70;;;;;;5112578;28;20508;-70
2023/04/19 05:11:43;;;;;;;1.63;1.10;;;9.40;75.60;;;;;;5112986;28;20040;-70
2023/04/19 05:14:08;;;;;;;1.10;0.90;;;9.40;75.60;;;;;;5112486;28;20043;-71
2023/04/19 05:16:34;;;;;;;1.45;1.00;;;9.30;75.60;;;;;;5112442;28;20122;-70
2023/04/19 05:19:00;;;;;;;0.95;0.85;;;9.40;75.60;;;;;;5112524;28;20047;-70
2023/04/19 05:21:25;;;;;;;1.42;0.90;;;9.30;75.50;;;;;;5112365;28;20035;-71
2023/04/19 05:23:52;;;;;;;1.00;0.90;;;9.40;75.50;;;;;;5094581;28;20130;-70
2023/04/19 05:26:18;;;;;;;1.45;0.85;;;9.30;75.40;;;;;;5097842;28;20046;-70
2023/04/19 05:28:44;;;;;;;1.10;0.85;;;9.30;75.40;;;;;;5097026;28;20475;-71
2023/04/19 05:31:11;;;;;;;0.90;0.82;;;9.30;75.40;;;;;;5115970;28;20074;-71
2023/04/19 05:33:37;;;;;;;1.42;1.00;;;9.40;75.40;;;;;;5115959;28;20067;-71
2023/04/19 05:36:03;;;;;;;2.17;1.30;;;9.40;75.30;;;;;;5115830;28;20071;-72
2023/04/19 05:38:28;;;;;;;1.15;0.98;;;9.30;75.20;;;;;;5097178;28;20086;-71
2023/04/19 05:40:54;;;;;;;1.45;0.98;;;9.30;75.10;;;;;;5115794;28;20067;-70
2023/04/19 05:43:20;;;;;;;2.15;1.15;;;9.30;75.10;;;;;;5115641;28;20039;-70
2023/04/19 05:45:46;;;;;;;1.50;0.95;;;9.30;75.00;;;;;;5116171;28;20039;-71
2023/04/19 05:48:12;;;;;;;1.77;1.17;;;9.40;74.90;;;;;;5115593;28;20036;-70
2023/04/19 05:50:38;;;;;;;1.55;1.17;;;9.40;74.80;;;;;;5115380;28;20032;-71
2023/04/19 05:53:04;;;;;;;1.40;0.90;;;9.40;74.80;;;;;;5115968;28;20047;-69
2023/04/19 05:55:30;;;;;;;1.27;0.90;;;9.40;74.70;;;;;;5115328;28;20043;-70
2023/04/19 05:57:57;;;;;;;2.05;1.08;;;9.30;74.60;;;;;;5115885;28;20389;-71
2023/04/19 06:00:22;;;;;;;0.80;0.70;;;9.40;74.60;;;;;;5115425;28;20047;-70
2023/04/19 06:02:48;;;;;;;0.95;0.82;;;9.30;74.50;;;;;;5115247;28;20374;-70
2023/04/19 06:05:14;;;;;;;1.20;1.10;;;9.40;74.60;;;;;;5115158;28;20036;-70
2023/04/19 06:07:39;;;;;;;1.23;1.00;;;9.30;74.50;;;;;;5115376;28;20396;-70
2023/04/19 06:10:06;;;;;;;2.05;1.27;;;9.30;74.40;;;;;;5115350;28;20039;-71
2023/04/19 06:12:32;;;;;;;1.13;0.85;;;9.30;74.40;;;;;;5080112;28;20047;-70
2023/04/19 06:14:58;;;;;;;1.60;1.10;;;9.30;74.30;;;;;;5115205;28;20036;-70
2023/04/19 06:17:24;;;;;;;1.23;0.98;;;9.30;74.10;;;;;;5097190;28;20040;-70
2023/04/19 06:19:51;;;;;;;1.20;1.00;;;9.30;74.00;;;;;;5114899;28;20036;-71
2023/04/19 06:22:17;;;;;;;1.17;0.90;;;9.30;73.90;;;;;;5115088;28;20031;-70
2023/04/19 06:24:44;;;;;;;1.63;0.98;;;9.30;73.80;;;;;;5114874;28;20039;-70
2023/04/19 06:27:10;;;;;;;1.77;1.17;;;9.40;73.70;;;;;;5115482;28;20388;-70
2023/04/19 06:29:36;;;;;;;1.38;1.00;;;9.40;73.60;;;;;;5115066;28;20110;-70
2023/04/19 06:32:02;;;;;;;1.70;1.08;;;9.40;73.30;;;;;;5115197;28;20043;-70
2023/04/19 06:34:27;;;;;;;1.13;0.90;;;9.60;73.20;;;;;;5113805;28;20039;-72
2023/04/19 06:36:53;;;;;;;1.27;0.98;;;9.60;72.90;;;;;;5114790;28;20400;-70
2023/04/19 06:39:19;;;;;;;1.55;1.00;;;9.70;72.70;;;;;;5094495;28;20486;-70
2023/04/19 06:41:44;;;;;;;1.75;1.05;;;9.70;72.40;;;;;;5096037;28;20039;-70
2023/04/19 06:44:12;;;;;;;1.67;1.08;;;9.80;72.30;;;;;;5114938;28;20046;-70
2023/04/19 06:46:38;;;;;;;2.00;1.20;;;9.80;72.10;;;;;;5114762;28;20503;-71
2023/04/19 06:49:04;;;;;;;2.40;1.40;;;9.80;71.70;;;;;;5097034;28;20039;-70
2023/04/19 06:51:29;;;;;;;2.33;1.33;;;10.00;71.70;;;;;;5095617;28;20081;-70
2023/04/19 06:53:55;;;;;;;1.15;0.95;;;10.00;71.40;;;;;;5114849;28;20044;-70
2023/04/19 06:56:39;;;;;;;1.70;1.20;;;10.10;71.30;;;;;;5114983;28;20054;-70
2023/04/19 06:59:05;;;;;;;1.60;1.13;;;10.10;71.10;;;;;;5114479;28;20039;-71
2023/04/19 07:01:31;;;;;;;1.00;0.90;;;10.20;71.00;;;;;;5096176;28;20184;-70
2023/04/19 07:03:56;;;;;;;1.35;1.00;;;10.20;70.90;;;;;;5096546;28;20113;-71
2023/04/19 07:06:22;;;;;;;1.00;0.93;;;10.20;70.80;;;;;;5079595;28;20533;-70
2023/04/19 07:08:48;;;;;;;1.70;1.30;;;10.20;70.60;;;;;;5095545;28;20047;-71
2023/04/19 07:11:13;;;;;;;1.58;0.80;;;10.20;70.50;;;;;;5096149;28;20152;-70
2023/04/19 07:13:39;;;;;;;1.77;1.05;;;10.20;70.30;;;;;;5094199;28;20047;-70
2023/04/19 07:16:06;;;;;;;1.25;0.80;;;10.30;70.30;;;;;;5114540;28;20561;-70
2023/04/19 07:18:31;;;;;;;1.05;0.90;;;10.40;70.30;;;;;;5114124;28;20048;-69
2023/04/19 07:20:57;;;;;;;1.13;0.93;;;10.40;70.10;;;;;;5096058;28;20142;-70
2023/04/19 07:23:22;;;;;;;0.95;0.90;;;10.30;69.90;;;;;;5113952;28;20042;-69
2023/04/19 07:25:48;;;;;;;1.77;1.00;;;10.40;69.60;;;;;;5114115;28;20085;-70
2023/04/19 07:28:14;;;;;;;1.10;0.82;;;10.40;69.60;;;;;;5096400;28;20054;-70
2023/04/19 07:30:40;;;;;;;1.45;1.02;;;10.40;69.30;;;;;;5078839;28;20131;-70
2023/04/19 07:33:07;;;;;;;1.15;0.90;;;10.40;69.30;;;;;;5114237;28;20464;-70
2023/04/19 07:35:38;;;;;;;1.65;0.70;;;10.50;69.20;;;;;;5113802;28;20108;-71
2023/04/19 07:38:03;;;;;;;0.73;0.70;;;10.50;69.10;;;;;;5062771;28;20051;-71
2023/04/19 07:40:29;;;;;;;0.93;0.77;;;10.60;69.00;;;;;;5079000;28;20035;-70
2023/04/19 07:42:55;;;;;;;1.20;0.68;;;10.60;68.90;;;;;;5095185;28;20044;-70
2023/04/19 07:45:21;;;;;;;1.95;0.90;;;10.60;68.70;;;;;;5095971;28;20401;-70
2023/04/19 07:47:46;;;;;;;0.98;0.82;;;10.70;68.60;;;;;;5113216;28;20039;-70
2023/04/19 07:50:12;;;;;;;2.00;0.60;;;10.70;68.50;;;;;;5113687;28;20036;-70
2023/04/19 07:52:38;;;;;;;1.10;0.77;;;10.80;68.30;;;;;;5113722;28;20595;-70
2023/04/19 07:55:05;;;;;;;0.77;0.77;;;10.80;68.20;;;;;;5095612;28;20047;-70
2023/04/19 07:57:30;;;;;;;0.52;0.52;;;10.90;68.10;;;;;;5078732;28;20493;-70
2023/04/19 07:59:58;;;;;;;1.00;0.75;;;11.00;68.00;;;;;;5078467;28;20075;-69
2023/04/19 08:02:26;;;;;;;0.95;0.70;;;11.10;67.70;;;;;;5095627;28;20035;-70
2023/04/19 08:04:52;;;;;;;1.05;0.80;;;11.30;67.50;;;;;;5078377;28;20393;-70
2023/04/19 08:07:18;;;;;;;0.98;0.65;;;11.40;67.20;;;;;;5113409;28;20043;-72
2023/04/19 08:09:44;;;;;;;1.05;0.70;;;11.40;67.70;;;;;;5095134;28;20135;-71
2023/04/19 08:12:09;;;;;;;1.15;0.70;;;11.50;66.90;;;;;;5113757;28;20048;-71
2023/04/19 08:14:37;;;;;;;0.60;0.60;;;11.60;66.80;;;;;;5095055;28;20465;-69
2023/04/19 08:17:03;;;;;;;0.60;0.60;;;11.60;66.60;;;;;;5095289;28;20043;-70
2023/04/19 08:19:29;;;;;;;0.80;0.70;;;11.70;66.40;;;;;;5094318;28;20051;-70
2023/04/19 08:21:56;;;;;;;1.35;0.88;;;11.80;66.20;;;;;;5094284;28;20032;-69
2023/04/19 08:24:21;;;;;;;0.98;0.55;;;12.00;66.00;;;;;;5078142;28;20180;-69
2023/04/19 08:26:52;;;;;;;0.93;0.68;;;12.10;66.00;;;;;;5094546;28;20455;-69
2023/04/19 08:29:19;;;;;;;0.75;0.70;;;12.10;65.80;;;;;;5113228;28;20036;-70
2023/04/19 08:31:45;;;;;;;0.63;0.60;;;12.10;65.60;;;;;;5060691;28;20103;-69
2023/04/19 08:34:11;;;;;;;1.65;0.80;;;12.30;65.50;;;;;;5093592;28;20040;-69
2023/04/19 08:36:37;;;;;;;0.60;0.60;;;12.30;65.30;;;;;;5095579;28;20469;-69
2023/04/19 08:39:02;;;;;;;0.65;0.63;;;12.40;65.30;;;;;;5112954;28;20062;-70
2023/04/19 08:41:30;;;;;;;0.90;0.70;;;12.50;65.10;;;;;;5113538;28;20044;-69
2023/04/19 08:43:58;;;;;;;0.60;0.60;;;12.70;65.00;;;;;;5094696;28;20043;-69
2023/04/19 08:46:25;;;;;;;0.65;0.60;;;12.70;64.80;;;;;;5078080;28;20134;-69
2023/04/19 08:48:51;;;;;;;0.60;0.60;;;12.70;64.80;;;;;;5112816;28;20042;-68
2023/04/19 08:51:18;;;;;;;0.82;0.50;;;12.80;64.70;;;;;;5112709;28;20493;-69
2023/04/19 08:53:44;;;;;;;0.60;0.60;;;12.80;64.60;;;;;;5112536;28;20044;-67
2023/04/19 08:56:11;;;;;;;0.75;0.47;;;12.90;64.60;;;;;;5076162;28;20078;-68
2023/04/19 08:58:37;;;;;;;0.80;0.70;;;13.00;64.50;;;;;;5093076;28;20489;-68
2023/04/19 09:01:04;;;;;;;0.70;0.65;;;13.10;64.20;;;;;;5112605;28;20050;-68
2023/04/19 09:03:31;;;;;;;0.88;0.60;;;13.20;64.00;;;;;;5112528;28;20055;-68
2023/04/19 09:05:59;;;;;;;0.50;0.50;;;13.20;63.80;;;;;;5112541;28;20485;-68
2023/04/19 09:08:27;;;;;;;1.15;0.60;;;13.30;63.70;;;;;;5112771;28;20036;-68
2023/04/19 09:10:55;;;;;;;0.50;0.50;;;13.40;63.60;;;;;;5094157;28;20485;-69
2023/04/19 09:13:21;;;;;;;0.63;0.50;;;13.40;63.60;;;;;;5093529;28;20043;-68
2023/04/19 09:15:47;;;;;;;0.50;0.50;;;13.40;63.70;;;;;;5112852;28;20489;-68
2023/04/19 09:18:13;;;;;;;0.82;0.50;;;13.30;63.60;;;;;;5075392;28;20093;-67
2023/04/19 09:20:41;;;;;;;0.77;0.60;;;13.30;63.50;;;;;;5077260;28;20089;-68
2023/04/19 09:23:11;;;;;;;0.45;0.45;;;13.30;63.60;;;;;;5094467;28;20044;-68
2023/04/19 09:25:37;;;;;;;0.60;0.60;;;13.20;63.60;;;;;;5093914;28;20398;-68
2023/04/19 09:28:12;;;;;;;0.47;0.47;;;13.30;63.70;;;;;;5094934;28;20039;-68
2023/04/19 09:30:38;;;;;;;0.85;0.80;;;13.30;63.60;;;;;;5112380;28;20067;-67
2023/04/19 09:33:04;;;;;;;0.52;0.50;;;13.40;63.60;;;;;;5059284;28;20108;-68
2023/04/19 09:35:46;;;;;;;1.02;0.52;;;13.50;63.50;;;;;;5091916;28;20573;-68
2023/04/19 09:38:12;;;;;;;1.00;0.40;;;13.60;63.20;;;;;;5093276;28;20496;-69
2023/04/19 09:40:39;;;;;;;0.85;0.60;;;13.60;63.20;;;;;;5112108;28;20052;-68
2023/04/19 09:43:05;;;;;;;0.75;0.50;;;13.70;62.90;;;;;;5112027;28;20036;-68
2023/04/19 09:45:40;;;;;;;0.60;0.60;;;13.60;63.00;;;;;;5094017;28;20047;-70
2023/04/19 09:48:07;;;;;;;0.85;0.57;;;13.70;62.90;;;;;;5109437;28;20059;-68
2023/04/19 09:50:34;;;;;;;0.93;0.70;;;13.70;62.90;;;;;;5112626;28;20047;-68
2023/04/19 09:53:00;;;;;;;1.08;0.68;;;13.70;62.50;;;;;;5093527;28;20046;-67
2023/04/19 09:55:26;;;;;;;0.65;0.55;;;13.60;62.50;;;;;;5092853;28;20087;-67
2023/04/19 09:57:52;;;;;;;1.20;0.60;;;13.50;62.50;;;;;;5112196;28;20067;-68
2023/04/19 10:00:20;;;;;;;0.80;0.70;;;13.50;62.60;;;;;;5112039;28;20043;-69
2023/04/19 10:02:53;;;;;;;0.40;0.40;;;13.50;62.60;;;;;;5093527;28;20055;-69
2023/04/19 10:05:21;;;;;;;0.60;0.55;;;13.50;62.50;;;;;;5111829;28;20044;-69
2023/04/19 10:07:47;;;;;;;0.43;0.43;;;13.50;62.20;;;;;;5093747;28;20043;-69
2023/04/19 10:10:16;;;;;;;0.50;0.50;;;13.50;62.10;;;;;;5113921;28;20043;-68
2023/04/19 10:12:47;;;;;;;0.50;0.43;;;13.60;62.00;;;;;;5080655;28;20042;-68
2023/04/19 10:15:13;;;;;;;0.50;0.50;;;13.60;62.00;;;;;;5064094;28;20032;-68
2023/04/19 10:17:40;;;;;;;0.77;0.57;;;13.60;61.90;;;;;;5080090;28;20027;-67
2023/04/19 10:20:09;;;;;;;0.50;0.50;;;13.60;61.90;;;;;;5114877;28;20035;-67
2023/04/19 10:22:37;;;;;;;1.10;0.45;;;13.70;61.80;;;;;;5115005;28;20035;-68
2023/04/19 10:25:12;;;;;;;0.50;0.47;;;13.70;61.80;;;;;;5114960;28;20053;-69
2023/04/19 10:27:39;;;;;;;1.55;0.60;;;13.80;61.50;;;;;;5115056;28;20122;-69
2023/04/19 10:30:11;;;;;;;0.82;0.60;;;13.80;61.90;;;;;;5114578;28;20119;-68
2023/04/19 10:32:40;;;;;;;0.93;0.60;;;13.80;61.20;;;;;;5114287;28;20038;-69
2023/04/19 10:35:08;;;;;;;1.15;0.75;;;13.80;61.10;;;;;;5096111;28;20048;-68
2023/04/19 10:37:34;;;;;;;0.73;0.57;;;13.80;60.80;;;;;;5096068;28;20440;-68
2023/04/19 10:39:59;;;;;;;1.10;0.70;;;13.80;60.80;;;;;;5094993;28;20040;-68
2023/04/19 10:42:59;;;;;;;0.80;0.60;;;13.90;60.80;;;;;;5114791;28;20370;-69
2023/04/19 10:45:33;;;;;;;0.70;0.45;;;13.80;60.30;;;;;;5114657;28;20484;-68
2023/04/19 10:48:01;;;;;;;0.50;0.50;;;13.90;60.30;;;;;;5115046;28;20044;-68
2023/04/19 10:50:26;;;;;;;0.85;0.50;;;14.00;60.30;;;;;;5115027;28;20039;-69
2023/04/19 10:52:52;;;;;;;0.40;0.38;;;13.90;60.00;;;;;;5114801;28;20036;-68
2023/04/19 10:55:19;;;;;;;0.65;0.65;;;13.90;59.90;;;;;;5114615;28;20446;-68
2023/04/19 10:58:05;;;;;;;0.57;0.57;;;13.90;59.80;;;;;;5114952;28;20044;-68
2023/04/19 11:00:32;;;;;;;0.60;0.50;;;13.90;59.70;;;;;;5078015;28;20031;-68
2023/04/19 11:03:00;;;;;;;0.90;0.60;;;13.90;59.80;;;;;;5096902;28;20039;-68
2023/04/19 11:05:25;;;;;;;0.85;0.60;;;13.90;59.70;;;;;;5114812;28;20035;-68
2023/04/19 11:07:51;;;;;;;0.80;0.60;;;14.00;59.60;;;;;;5114740;28;20405;-69
2023/04/19 11:10:29;;;;;;;0.40;0.40;;;14.00;59.30;;;;;;5114370;28;20035;-68
2023/04/19 11:12:55;;;;;;;0.63;0.63;;;14.20;59.10;;;;;;5095736;28;20051;-69
2023/04/19 11:15:22;;;;;;;0.43;0.40;;;14.20;59.00;;;;;;5094941;28;20035;-69
2023/04/19 11:17:51;;;;;;;1.33;0.65;;;14.30;59.00;;;;;;5114565;28;20047;-68
2023/04/19 11:20:18;;;;;;;0.52;0.52;;;14.20;58.70;;;;;;5091802;28;20043;-68
2023/04/19 11:22:46;;;;;;;0.50;0.50;;;14.30;58.60;;;;;;5113242;28;20147;-69
2023/04/19 11:25:16;;;;;;;1.08;0.40;;;14.20;58.40;;;;;;5114106;28;20043;-69
2023/04/19 11:27:45;;;;;;;1.42;0.70;;;14.30;58.30;;;;;;5114085;28;20552;-68
2023/04/19 11:30:15;;;;;;;0.82;0.60;;;14.40;58.00;;;;;;5113875;28;20031;-69
2023/04/19 11:32:52;;;;;;;0.50;0.50;;;14.50;57.80;;;;;;5114393;28;20036;-68
2023/04/19 11:35:22;;;;;;;0.57;0.57;;;14.60;57.50;;;;;;5114400;28;20377;-69
2023/04/19 11:37:48;;;;;;;0.50;0.50;;;14.70;57.30;;;;;;5113969;28;20042;-69
2023/04/19 11:40:16;;;;;;;0.85;0.40;;;14.80;57.00;;;;;;5113853;28;20031;-70
2023/04/19 11:42:42;;;;;;;0.80;0.50;;;14.90;56.80;;;;;;5113757;28;20039;-69
2023/04/19 11:45:09;;;;;;;0.50;0.50;;;15.00;56.60;;;;;;5113816;28;20374;-70
2023/04/19 11:47:45;;;;;;;0.68;0.65;;;15.00;56.10;;;;;;5113687;28;20036;-69
2023/04/19 11:50:36;;;;;;;0.60;0.60;;;15.00;56.10;;;;;;5113790;28;20107;-69
2023/04/19 11:53:18;;;;;;;0.63;0.63;;;15.00;55.90;;;;;;5094776;28;20040;-71
2023/04/19 11:55:46;;;;;;;0.50;0.50;;;15.00;55.80;;;;;;5094119;28;20562;-71
2023/04/19 11:58:28;;;;;;;0.90;0.70;;;15.00;55.50;;;;;;5113905;28;20043;-71
2023/04/19 12:00:55;;;;;;;0.80;0.70;;;15.00;55.60;;;;;;5110277;28;20048;-70
2023/04/19 12:03:22;;;;;;;0.60;0.60;;;15.10;55.60;;;;;;5113963;28;20043;-71
2023/04/19 12:05:53;;;;;;;1.38;0.80;;;15.10;55.30;;;;;;5113341;28;20051;-71
2023/04/19 12:08:33;;;;;;;0.73;0.73;;;15.20;55.30;;;;;;5094459;28;20051;-71
2023/04/19 12:10:59;;;;;;;0.47;0.47;;;15.20;55.10;;;;;;5113549;28;20056;-70
2023/04/19 12:13:25;;;;;;;0.55;0.50;;;15.30;55.00;;;;;;5113365;28;20040;-71
2023/04/19 12:15:51;;;;;;;0.57;0.57;;;15.40;54.90;;;;;;5113232;28;20066;-69
2023/04/19 12:18:17;;;;;;;0.68;0.60;;;15.50;54.70;;;;;;5093771;28;20047;-70
2023/04/19 12:20:46;;;;;;;0.40;0.40;;;15.50;54.40;;;;;;5093045;28;20048;-70
2023/04/19 12:23:15;;;;;;;0.60;0.60;;;15.50;54.40;;;;;;5092773;28;20097;-71
2023/04/19 12:25:42;;;;;;;1.00;0.75;;;15.50;54.30;;;;;;5078214;28;20031;-71
2023/04/19 12:28:07;;;;;;;1.38;0.50;;;15.40;54.30;;;;;;5094218;28;20118;-70
2023/04/19 12:30:35;;;;;;;1.15;0.60;;;15.40;54.10;;;;;;5093406;28;20094;-70
2023/04/19 12:33:01;;;;;;;0.77;0.68;;;15.40;54.10;;;;;;5113009;28;20497;-69
2023/04/19 12:35:27;;;;;;;0.93;0.73;;;15.30;54.00;;;;;;5112877;28;20043;-68
2023/04/19 12:37:55;;;;;;;0.90;0.73;;;15.40;54.10;;;;;;5112761;28;20503;-69
2023/04/19 12:40:21;;;;;;;0.90;0.60;;;15.50;53.90;;;;;;5112861;28;20118;-69
2023/04/19 12:42:47;;;;;;;0.63;0.60;;;15.40;53.70;;;;;;5075635;28;20560;-69
2023/04/19 12:45:13;;;;;;;0.70;0.70;;;15.50;53.90;;;;;;5113288;28;20039;-70
2023/04/19 12:47:39;;;;;;;1.05;0.68;;;15.60;53.80;;;;;;5112613;28;20058;-70